Forside
METAR-TAF:

METAR-TAF

Lufthavne :

Leigh Creek, Australien

Breddekreds: 30-35-54S, længdekreds: 138-25-36E, højde: 261 m

Aktuelle vejr

Denne rapport blev lavet for 53 minutter siden, kl. 08:00 UTC
Vind 14 kt fra nordnordvest
Temperatur 32°C
Fugtighed 9%
Tryk 1010 hPa

METAR: YLEC 220800Z AUTO 33014KT //// // ////// 32/M05 Q1010

Tid: 19:23 (08:53 UTC)


TAF: fraværende

Vejrobservationer og prognoser fra mere end 4000 lufthavne (METAR og TAF).

De gule og røde prikker repræsenterer de meteorologiske stationer.

Flyt musen over at se navnet på stationen.

Så klik over at se vejr observationer og prognoser.

At skifte det kort: Klik på de grønne knapper med et sort kors for at zoome ind; på den grønne knap med en bindestreg for at zoome ud; eller på de grønne pile for tilstødende kort.


METAR-TAF: